Lancaster, Indiana
Current Conditions -  °F | °C
As of 7:55 PM on Tuesday 21 Oct 2014 (Local Time) from KHHG Reporting Station
Overcast Overcast  
Wind Chill: 46°   Ceiling: 3700
Heat Index: 48°   Visibility: 10mi
Dew Point: 39°   Wind: 6mph
Humidity: 71%   Direction: 20°NNE
Pressure: 30.17"   Gusts: NA
Location:  40.9238°N, 85.5001°W
Report Text: KHHG 212355Z AUTO 02005KT 10SM OVC037 09/04 A3017 RMK AO2 T00900040 10115 20090
Loading
Personal Weather Stations






























Interactive Weather Map
Tropical Storm Tracking
New forecast layout! Learn more

10-Day Weather Forecast

Advertisements
Track Severe Weather on mobile